Time;durP1;ratioP1;P1;durP2;ratioP2;P2;SDS_P1;SDS_P2;PMS_P1;PMS_P2;Temp;Humidity;BMP_temperature;BMP_pressure;BME280_temperature;BME280_humidity;BME280_pressure;Samples;Min_cycle;Max_cycle;Signal;HPM_P1;HPM_P2
2022/07/18 00:00:44;;;;;;;2.85;1.88;;;21.60;76.80;;;;;;7393365;19;20430;-85
2022/07/18 00:03:10;;;;;;;2.88;1.95;;;21.70;76.70;;;;;;7392665;19;20205;-85
2022/07/18 00:05:36;;;;;;;2.38;1.50;;;22.00;76.80;;;;;;7387534;19;20135;-84
2022/07/18 00:08:02;;;;;;;3.78;1.55;;;22.20;75.80;;;;;;7395943;19;20477;-85
2022/07/18 00:10:27;;;;;;;2.13;1.63;;;22.10;76.00;;;;;;7397017;19;20158;-83
2022/07/18 00:12:53;;;;;;;3.33;1.95;;;21.90;76.90;;;;;;7392918;19;20135;-85
2022/07/18 00:15:19;;;;;;;2.95;1.77;;;21.70;77.30;;;;;;7395940;19;20126;-85
2022/07/18 00:17:45;;;;;;;3.33;1.38;;;21.50;78.00;;;;;;7393759;19;20131;-83
2022/07/18 00:20:11;;;;;;;3.53;1.42;;;21.40;78.00;;;;;;7393413;19;20597;-85
2022/07/18 00:22:37;;;;;;;2.15;1.50;;;21.40;78.40;;;;;;7392209;19;20141;-80
2022/07/18 00:25:04;;;;;;;4.60;1.70;;;21.40;78.70;;;;;;7393176;19;20143;-84
2022/07/18 00:27:30;;;;;;;2.63;1.60;;;21.70;78.10;;;;;;7387962;19;20592;-85
2022/07/18 00:29:56;;;;;;;2.35;1.65;;;21.80;77.70;;;;;;7391758;19;20141;-85
2022/07/18 00:32:21;;;;;;;2.90;1.48;;;21.70;77.40;;;;;;7394988;19;20171;-85
2022/07/18 00:34:47;;;;;;;3.33;2.00;;;21.70;77.90;;;;;;7393720;19;20528;-87
2022/07/18 00:37:13;;;;;;;2.88;1.50;;;21.50;77.80;;;;;;7391812;19;20127;-86
2022/07/18 00:39:39;;;;;;;3.65;1.60;;;21.70;77.80;;;;;;7387153;19;20145;-85
2022/07/18 00:42:05;;;;;;;2.70;1.25;;;21.90;77.10;;;;;;7393053;19;20502;-84
2022/07/18 00:44:30;;;;;;;1.58;1.15;;;21.90;77.20;;;;;;7389924;19;20150;-84
2022/07/18 00:47:00;;;;;;;2.40;1.38;;;21.90;76.40;;;;;;7391749;19;20138;-84
2022/07/18 00:49:27;;;;;;;2.42;1.25;;;21.90;76.10;;;;;;7393130;19;20178;-86
2022/07/18 00:51:53;;;;;;;1.85;1.23;;;21.90;76.70;;;;;;7390601;19;20150;-84
2022/07/18 00:54:19;;;;;;;2.10;1.30;;;21.80;75.80;;;;;;7388824;19;20138;-86
2022/07/18 00:56:47;;;;;;;3.33;1.40;;;21.90;75.80;;;;;;7390771;19;20470;-85
2022/07/18 00:59:13;;;;;;;1.80;1.30;;;21.80;75.10;;;;;;7390112;19;20186;-83
2022/07/18 01:01:43;;;;;;;1.75;1.23;;;21.60;74.50;;;;;;7391355;19;20147;-85
2022/07/18 01:04:10;;;;;;;1.80;1.13;;;21.30;74.40;;;;;;7388426;19;20198;-88
2022/07/18 01:06:36;;;;;;;1.63;1.45;;;21.10;74.80;;;;;;7391643;19;20131;-86
2022/07/18 01:09:02;;;;;;;3.25;1.30;;;21.10;75.60;;;;;;7388832;19;20162;-85
2022/07/18 01:11:28;;;;;;;1.75;1.10;;;21.40;75.90;;;;;;7386924;19;20142;-86
2022/07/18 01:13:54;;;;;;;2.25;1.45;;;21.70;75.50;;;;;;7393300;19;20347;-84
2022/07/18 01:16:21;;;;;;;2.55;1.38;;;21.80;75.80;;;;;;7390763;19;20173;-86
2022/07/18 01:18:48;;;;;;;3.40;1.42;;;21.90;75.70;;;;;;7394268;19;20137;-86
2022/07/18 01:21:15;;;;;;;5.00;1.90;;;22.00;75.80;;;;;;7391688;19;20150;-85
2022/07/18 01:23:41;;;;;;;4.35;1.67;;;22.00;76.80;;;;;;7388735;19;20145;-86
2022/07/18 01:26:07;;;;;;;10.52;2.42;;;21.80;76.50;;;;;;7390009;19;20189;-85
2022/07/18 01:28:33;;;;;;;7.45;2.22;;;21.40;78.00;;;;;;7391267;19;20150;-83
2022/07/18 01:30:59;;;;;;;11.10;2.47;;;21.40;78.10;;;;;;7389926;19;20145;-85
2022/07/18 01:33:25;;;;;;;5.03;1.65;;;21.30;78.40;;;;;;7391455;19;20157;-85
2022/07/18 01:35:51;;;;;;;8.82;1.63;;;21.10;78.80;;;;;;7390529;19;20152;-81
2022/07/18 01:38:18;;;;;;;2.90;1.30;;;21.30;79.30;;;;;;7390684;19;20169;-86
2022/07/18 01:40:44;;;;;;;2.25;1.50;;;21.50;78.10;;;;;;7389855;19;20151;-80
2022/07/18 01:43:10;;;;;;;4.07;1.50;;;21.60;77.50;;;;;;7389997;19;20135;-82
2022/07/18 01:45:35;;;;;;;4.78;1.45;;;21.60;76.60;;;;;;7390106;19;20162;-84
2022/07/18 01:48:01;;;;;;;3.17;1.67;;;21.50;76.50;;;;;;7385398;19;20131;-83
2022/07/18 01:50:27;;;;;;;2.95;1.50;;;21.40;77.50;;;;;;7388353;19;20140;-82
2022/07/18 01:52:53;;;;;;;2.65;1.67;;;21.00;77.70;;;;;;7392454;19;20157;-83
2022/07/18 01:55:19;;;;;;;4.82;1.73;;;20.50;79.20;;;;;;7390581;19;20198;-84
2022/07/18 01:57:45;;;;;;;2.88;1.40;;;20.20;80.40;;;;;;7389001;19;20142;-83
2022/07/18 02:00:11;;;;;;;2.63;1.40;;;20.30;80.70;;;;;;7389498;19;20487;-84
2022/07/18 02:02:38;;;;;;;3.35;1.40;;;20.30;80.90;;;;;;7389983;19;20142;-83
2022/07/18 02:05:05;;;;;;;3.25;1.40;;;20.50;80.80;;;;;;7386975;19;20210;-83
2022/07/18 02:07:40;;;;;;;2.72;1.33;;;20.70;81.50;;;;;;7389491;19;20155;-83
2022/07/18 02:10:13;;;;;;;2.15;1.33;;;21.00;79.60;;;;;;7389382;19;20305;-84
2022/07/18 02:12:39;;;;;;;1.42;1.30;;;21.00;79.20;;;;;;7388142;19;20142;-84
2022/07/18 02:15:07;;;;;;;2.45;1.40;;;21.30;79.40;;;;;;7390499;19;20155;-82
2022/07/18 02:17:33;;;;;;;1.50;1.23;;;21.40;79.20;;;;;;7388125;19;20138;-84
2022/07/18 02:19:59;;;;;;;5.00;1.60;;;21.50;78.80;;;;;;7392925;19;20623;-84
2022/07/18 02:22:25;;;;;;;3.53;1.83;;;21.40;79.00;;;;;;7395071;19;20146;-83
2022/07/18 02:24:52;;;;;;;1.83;1.45;;;21.40;79.40;;;;;;7397136;19;20141;-83
2022/07/18 02:27:18;;;;;;;1.95;1.20;;;21.30;80.40;;;;;;7394694;19;20217;-82
2022/07/18 02:29:44;;;;;;;1.50;1.30;;;21.30;80.10;;;;;;7395867;19;20640;-84
2022/07/18 02:32:10;;;;;;;2.45;1.27;;;21.10;80.40;;;;;;7397900;19;20134;-85
2022/07/18 02:34:36;;;;;;;2.13;1.35;;;21.10;81.30;;;;;;7396448;19;20149;-82
2022/07/18 02:37:03;;;;;;;1.58;1.15;;;21.20;80.80;;;;;;7393136;19;20588;-84
2022/07/18 02:39:29;;;;;;;2.22;1.30;;;21.20;79.50;;;;;;7397866;19;20153;-84
2022/07/18 02:41:55;;;;;;;4.50;1.30;;;21.30;78.80;;;;;;7392742;19;20149;-83
2022/07/18 02:44:21;;;;;;;2.30;1.13;;;21.30;78.10;;;;;;7396359;19;20146;-84
2022/07/18 02:46:47;;;;;;;2.05;1.30;;;21.30;77.70;;;;;;7399067;19;20238;-84
2022/07/18 02:49:26;;;;;;;1.80;1.02;;;21.20;78.00;;;;;;7397159;19;20162;-84
2022/07/18 02:52:01;;;;;;;1.88;1.02;;;21.20;78.70;;;;;;7398039;19;20135;-84
2022/07/18 02:54:29;;;;;;;3.25;1.38;;;21.20;77.10;;;;;;7395572;19;20198;-76
2022/07/18 02:56:55;;;;;;;4.50;1.20;;;21.20;77.30;;;;;;7398290;19;20138;-76
2022/07/18 02:59:21;;;;;;;1.88;1.25;;;21.10;77.90;;;;;;7394830;19;20668;-76
2022/07/18 03:01:48;;;;;;;1.30;1.05;;;21.10;78.40;;;;;;7395080;19;20660;-76
2022/07/18 03:04:15;;;;;;;6.50;1.48;;;21.10;79.20;;;;;;7394836;19;20160;-76
2022/07/18 03:06:41;;;;;;;3.65;1.30;;;20.90;80.20;;;;;;7397455;19;20150;-75
2022/07/18 03:09:07;;;;;;;5.20;1.20;;;20.80;80.30;;;;;;7395165;19;20217;-77
2022/07/18 03:11:33;;;;;;;1.38;1.08;;;20.70;79.60;;;;;;7397656;19;20173;-75
2022/07/18 03:13:58;;;;;;;2.50;1.23;;;20.70;79.80;;;;;;7397195;19;20584;-75
2022/07/18 03:16:24;;;;;;;1.98;1.15;;;20.50;79.70;;;;;;7393959;19;20167;-75
2022/07/18 03:18:51;;;;;;;5.85;1.30;;;20.00;80.30;;;;;;7394278;19;20224;-75
2022/07/18 03:21:17;;;;;;;2.80;1.20;;;19.80;81.60;;;;;;7394820;19;20139;-74
2022/07/18 03:23:42;;;;;;;5.00;1.17;;;20.00;82.00;;;;;;7392406;19;20154;-74
2022/07/18 03:26:08;;;;;;;1.58;1.10;;;19.90;81.60;;;;;;7393447;19;20516;-73
2022/07/18 03:28:34;;;;;;;3.65;1.10;;;19.90;82.50;;;;;;7393950;19;20134;-75
2022/07/18 03:31:00;;;;;;;2.20;1.20;;;19.80;83.30;;;;;;7394171;19;20855;-75
2022/07/18 03:33:26;;;;;;;4.05;1.10;;;20.00;82.50;;;;;;7396277;19;20133;-74
2022/07/18 03:35:52;;;;;;;2.08;1.42;;;20.40;82.50;;;;;;7393721;19;20214;-74
2022/07/18 03:38:18;;;;;;;3.10;1.38;;;20.50;82.10;;;;;;7393440;19;20141;-75
2022/07/18 03:40:44;;;;;;;2.50;1.30;;;20.50;81.80;;;;;;7395255;19;20134;-74
2022/07/18 03:43:10;;;;;;;2.05;1.15;;;20.30;82.50;;;;;;7394186;19;20138;-74
2022/07/18 03:45:36;;;;;;;3.58;1.52;;;20.20;82.80;;;;;;7392750;19;20160;-75
2022/07/18 03:48:02;;;;;;;2.67;1.23;;;20.40;82.50;;;;;;7394146;19;20142;-75
2022/07/18 03:50:27;;;;;;;3.38;1.50;;;20.50;81.30;;;;;;7392427;19;20154;-74
2022/07/18 03:52:53;;;;;;;2.08;1.15;;;20.50;81.70;;;;;;7393325;19;20198;-74
2022/07/18 03:55:20;;;;;;;2.08;1.42;;;20.60;81.20;;;;;;7393827;19;20175;-74
2022/07/18 03:57:46;;;;;;;1.58;1.45;;;20.60;81.00;;;;;;7394816;19;20142;-74
2022/07/18 04:00:12;;;;;;;2.38;1.40;;;20.70;81.50;;;;;;7389715;19;20145;-75
2022/07/18 04:02:43;;;;;;;3.25;1.50;;;20.70;81.90;;;;;;7392512;19;20130;-73
2022/07/18 04:05:10;;;;;;;5.90;1.65;;;20.60;82.60;;;;;;7394947;19;20763;-74
2022/07/18 04:07:36;;;;;;;2.53;1.52;;;20.50;83.70;;;;;;7395309;19;20459;-74
2022/07/18 04:10:04;;;;;;;2.58;1.50;;;20.50;84.10;;;;;;7392832;19;20142;-75
2022/07/18 04:12:30;;;;;;;1.30;1.17;;;20.40;84.10;;;;;;7392699;19;20138;-75
2022/07/18 04:14:56;;;;;;;1.27;1.00;;;19.90;85.20;;;;;;7393114;19;20135;-75
2022/07/18 04:17:22;;;;;;;4.20;1.90;;;19.70;86.30;;;;;;7391643;19;20166;-74
2022/07/18 04:19:48;;;;;;;2.80;1.80;;;19.80;87.10;;;;;;7390122;19;20169;-74
2022/07/18 04:22:14;;;;;;;1.98;1.30;;;19.70;86.70;;;;;;7392622;19;20135;-74
2022/07/18 04:24:40;;;;;;;6.28;1.50;;;19.80;87.90;;;;;;7389743;19;20206;-74
2022/07/18 04:27:05;;;;;;;2.05;1.30;;;20.10;87.90;;;;;;7393773;19;20929;-74
2022/07/18 04:29:31;;;;;;;3.78;1.50;;;20.30;87.10;;;;;;7392294;19;20492;-74
2022/07/18 04:31:58;;;;;;;3.47;1.52;;;20.50;88.30;;;;;;7390800;19;20221;-74
2022/07/18 04:34:24;;;;;;;3.33;2.22;;;20.20;88.90;;;;;;7394857;19;20145;-75
2022/07/18 04:36:49;;;;;;;1.90;1.70;;;20.10;88.50;;;;;;7391907;19;20493;-74
2022/07/18 04:39:16;;;;;;;8.55;2.28;;;20.30;88.90;;;;;;7391235;19;20145;-75
2022/07/18 04:41:43;;;;;;;3.50;1.85;;;20.50;89.80;;;;;;7390483;19;20142;-74
2022/07/18 04:44:09;;;;;;;3.35;2.08;;;20.60;89.50;;;;;;7390432;19;20126;-74
2022/07/18 04:46:35;;;;;;;4.68;1.95;;;20.70;88.20;;;;;;7392045;19;20506;-74
2022/07/18 04:49:01;;;;;;;4.63;1.90;;;20.70;88.70;;;;;;7391219;19;20134;-73
2022/07/18 04:51:27;;;;;;;2.70;1.80;;;20.40;87.40;;;;;;7391466;19;20161;-74
2022/07/18 04:53:54;;;;;;;3.75;1.60;;;20.50;87.30;;;;;;7393007;19;20138;-74
2022/07/18 04:56:23;;;;;;;3.95;1.40;;;20.50;86.60;;;;;;7390293;19;20163;-74
2022/07/18 04:58:49;;;;;;;1.95;1.40;;;20.50;86.30;;;;;;7391393;19;20135;-74
2022/07/18 05:01:15;;;;;;;3.75;1.50;;;20.40;85.90;;;;;;7391907;19;20607;-77
2022/07/18 05:03:41;;;;;;;2.45;1.58;;;20.60;85.50;;;;;;7388790;19;20152;-74
2022/07/18 05:06:07;;;;;;;4.28;1.70;;;20.50;85.80;;;;;;7389960;19;20152;-74
2022/07/18 05:08:32;;;;;;;3.83;1.20;;;20.20;85.50;;;;;;7392571;19;20195;-77
2022/07/18 05:11:00;;;;;;;3.75;1.60;;;20.00;86.60;;;;;;7392120;19;20173;-74
2022/07/18 05:13:26;;;;;;;7.65;3.10;;;20.00;87.50;;;;;;7391827;19;20148;-75
2022/07/18 05:15:52;;;;;;;8.23;5.97;;;19.90;87.30;;;;;;7392034;19;20214;-74
2022/07/18 05:18:18;;;;;;;3.95;2.35;;;19.90;85.90;;;;;;7390155;19;20135;-74
2022/07/18 05:20:43;;;;;;;2.25;1.20;;;20.00;85.70;;;;;;7389655;19;20150;-74
2022/07/18 05:23:09;;;;;;;2.67;1.38;;;20.30;84.90;;;;;;7388381;19;20147;-75
2022/07/18 05:25:35;;;;;;;2.42;1.63;;;20.40;84.40;;;;;;7390600;19;20718;-74
2022/07/18 05:28:01;;;;;;;2.67;1.23;;;20.60;83.70;;;;;;7389507;19;20142;-75
2022/07/18 05:30:27;;;;;;;2.10;1.30;;;20.30;84.50;;;;;;7388289;19;20135;-75
2022/07/18 05:32:53;;;;;;;3.42;1.50;;;20.50;84.40;;;;;;7391770;19;20716;-76
2022/07/18 05:35:19;;;;;;;2.75;1.33;;;20.60;84.60;;;;;;7387082;19;20154;-75
2022/07/18 05:37:45;;;;;;;2.50;1.40;;;20.60;84.70;;;;;;7388745;19;20652;-75
2022/07/18 05:40:13;;;;;;;1.95;1.33;;;20.50;85.00;;;;;;7391960;19;20153;-76
2022/07/18 05:42:40;;;;;;;3.30;1.80;;;20.40;85.50;;;;;;7390460;19;20154;-75
2022/07/18 05:45:07;;;;;;;3.65;1.70;;;20.60;86.20;;;;;;7390514;19;20137;-75
2022/07/18 05:47:32;;;;;;;2.28;1.48;;;20.90;88.50;;;;;;7387888;19;20181;-75
2022/07/18 05:49:58;;;;;;;3.95;1.75;;;20.90;89.10;;;;;;7391564;19;20142;-75
2022/07/18 05:52:24;;;;;;;3.47;2.05;;;20.90;89.90;;;;;;7384874;19;20899;-74
2022/07/18 05:54:50;;;;;;;5.22;1.92;;;20.90;90.00;;;;;;7386712;19;20226;-76
2022/07/18 05:57:17;;;;;;;2.92;2.10;;;20.90;90.30;;;;;;7386165;19;20964;-76
2022/07/18 05:59:43;;;;;;;3.17;1.90;;;20.90;90.40;;;;;;7393706;19;20137;-75
2022/07/18 06:02:09;;;;;;;4.68;2.03;;;20.90;90.30;;;;;;7389814;19;20237;-72
2022/07/18 06:04:35;;;;;;;3.40;2.20;;;20.90;90.40;;;;;;7382161;19;20153;-74
2022/07/18 06:07:00;;;;;;;2.00;1.67;;;20.80;90.80;;;;;;7388168;19;20142;-74
2022/07/18 06:09:30;;;;;;;5.00;2.20;;;20.70;90.90;;;;;;7387904;19;20154;-74
2022/07/18 06:11:58;;;;;;;4.70;2.42;;;20.70;91.00;;;;;;7388099;19;20169;-74
2022/07/18 06:14:25;;;;;;;3.40;2.25;;;20.80;91.30;;;;;;7389682;19;20159;-74
2022/07/18 06:16:50;;;;;;;2.30;1.85;;;20.90;91.40;;;;;;7389742;19;20135;-75
2022/07/18 06:19:16;;;;;;;3.25;2.20;;;21.00;91.60;;;;;;7385501;19;20150;-74
2022/07/18 06:21:42;;;;;;;5.50;2.17;;;21.20;91.40;;;;;;7388772;19;20609;-75
2022/07/18 06:24:08;;;;;;;3.47;2.17;;;21.50;91.40;;;;;;7385145;19;20478;-74
2022/07/18 06:26:33;;;;;;;2.00;1.80;;;22.10;90.30;;;;;;7385092;19;20162;-74
2022/07/18 06:28:59;;;;;;;4.30;2.05;;;22.90;88.70;;;;;;7390636;19;20133;-73
2022/07/18 06:31:25;;;;;;;5.60;2.13;;;23.30;87.20;;;;;;7383900;19;20126;-73
2022/07/18 06:33:51;;;;;;;5.38;2.47;;;23.80;86.00;;;;;;7389049;19;20147;-72
2022/07/18 06:36:18;;;;;;;6.03;2.10;;;24.00;85.10;;;;;;7386608;19;20157;-73
2022/07/18 06:38:44;;;;;;;5.20;2.28;;;24.20;84.40;;;;;;7389014;19;20229;-72
2022/07/18 06:41:09;;;;;;;6.53;2.30;;;24.50;83.80;;;;;;7390416;19;20160;-73
2022/07/18 06:43:41;;;;;;;3.15;2.05;;;24.80;83.00;;;;;;7382069;19;20146;-73
2022/07/18 06:46:09;;;;;;;5.43;2.30;;;24.90;82.20;;;;;;7388449;19;20130;-74
2022/07/18 06:48:36;;;;;;;5.60;2.33;;;25.10;82.10;;;;;;7387710;19;20233;-75
2022/07/18 06:51:05;;;;;;;3.10;1.90;;;25.20;82.10;;;;;;7387467;19;20135;-76
2022/07/18 06:53:32;;;;;;;4.82;1.90;;;25.40;81.10;;;;;;7385981;19;20139;-76
2022/07/18 06:55:58;;;;;;;4.35;1.98;;;25.70;80.60;;;;;;7387128;19;20134;-75
2022/07/18 06:58:24;;;;;;;3.25;1.98;;;25.90;80.20;;;;;;7388850;19;20149;-76
2022/07/18 07:00:51;;;;;;;3.42;2.40;;;26.00;80.00;;;;;;7387836;19;20135;-76
2022/07/18 07:03:17;;;;;;;4.82;2.25;;;26.30;79.30;;;;;;7386994;19;20622;-77
2022/07/18 07:05:43;;;;;;;4.00;2.25;;;26.50;78.90;;;;;;7395364;19;20604;-77
2022/07/18 07:08:08;;;;;;;4.90;2.10;;;26.50;78.60;;;;;;7395262;19;20171;-75
2022/07/18 07:10:35;;;;;;;2.97;2.45;;;26.40;78.70;;;;;;7395348;19;20146;-75
2022/07/18 07:13:00;;;;;;;3.08;2.08;;;26.40;79.10;;;;;;7397096;19;20154;-76
2022/07/18 07:15:26;;;;;;;3.28;1.90;;;26.50;78.90;;;;;;7396819;19;20131;-76
2022/07/18 07:17:52;;;;;;;3.95;2.38;;;26.70;78.60;;;;;;7394216;19;20143;-76
2022/07/18 07:20:20;;;;;;;8.02;2.00;;;26.90;77.80;;;;;;7394729;19;20178;-76
2022/07/18 07:22:52;;;;;;;3.28;2.03;;;27.00;77.70;;;;;;7400404;19;20183;-75
2022/07/18 07:25:20;;;;;;;4.75;1.90;;;27.00;77.80;;;;;;7394688;19;20159;-75
2022/07/18 07:27:45;;;;;;;7.30;2.35;;;27.10;77.60;;;;;;7397103;19;20145;-74
2022/07/18 07:30:12;;;;;;;4.28;2.33;;;27.20;77.60;;;;;;7393684;19;20523;-76
2022/07/18 07:32:41;;;;;;;4.00;2.15;;;27.40;77.30;;;;;;7397083;19;20146;-74
2022/07/18 07:35:11;;;;;;;5.15;2.30;;;27.40;76.90;;;;;;7396746;19;20147;-75
2022/07/18 07:37:41;;;;;;;3.42;1.80;;;27.40;76.80;;;;;;7396821;19;20522;-75
2022/07/18 07:40:08;;;;;;;5.20;1.83;;;27.10;76.90;;;;;;7396478;19;20219;-76
2022/07/18 07:42:34;;;;;;;3.92;2.20;;;27.30;76.70;;;;;;7398271;19;20641;-77
2022/07/18 07:45:00;;;;;;;4.00;2.10;;;27.40;76.20;;;;;;7398498;19;20138;-75
2022/07/18 07:47:26;;;;;;;6.53;2.67;;;27.70;76.00;;;;;;7399743;19;20139;-76
2022/07/18 07:49:52;;;;;;;3.53;2.10;;;27.60;75.70;;;;;;7396076;19;20135;-75
2022/07/18 07:52:19;;;;;;;4.90;2.00;;;27.70;75.80;;;;;;7393545;19;20242;-76
2022/07/18 07:54:46;;;;;;;4.10;2.30;;;27.90;75.30;;;;;;7394906;19;20138;-75
2022/07/18 07:57:12;;;;;;;4.03;2.60;;;28.10;74.60;;;;;;7395058;19;20135;-74
2022/07/18 07:59:38;;;;;;;14.73;2.50;;;28.20;75.00;;;;;;7394584;19;20139;-75
2022/07/18 08:02:04;;;;;;;5.57;2.30;;;28.40;74.10;;;;;;7394699;19;20162;-76
2022/07/18 08:04:31;;;;;;;12.43;2.80;;;28.50;73.40;;;;;;7393234;19;20484;-75
2022/07/18 08:06:56;;;;;;;9.75;2.70;;;28.50;73.50;;;;;;7393421;19;20559;-76
2022/07/18 08:09:22;;;;;;;6.47;2.22;;;28.80;73.30;;;;;;7394170;19;20173;-75
2022/07/18 08:11:48;;;;;;;9.13;2.22;;;29.30;71.90;;;;;;7392747;19;20153;-76
2022/07/18 08:14:14;;;;;;;2.20;1.60;;;29.20;71.50;;;;;;7393925;19;20159;-76
2022/07/18 08:16:40;;;;;;;2.70;2.03;;;29.10;71.00;;;;;;7392220;19;20495;-76
2022/07/18 08:19:06;;;;;;;5.10;1.90;;;29.10;71.30;;;;;;7391694;19;20150;-74
2022/07/18 08:21:34;;;;;;;10.68;3.10;;;29.20;71.20;;;;;;7394751;19;20174;-76
2022/07/18 08:24:00;;;;;;;12.68;2.90;;;29.40;70.70;;;;;;7391491;19;20134;-76
2022/07/18 08:26:25;;;;;;;21.90;4.80;;;29.40;70.50;;;;;;7391133;19;20598;-75
2022/07/18 08:28:52;;;;;;;6.07;2.13;;;29.60;71.10;;;;;;7389754;19;20139;-76
2022/07/18 08:31:18;;;;;;;4.68;1.95;;;29.80;69.50;;;;;;7388753;19;20163;-75
2022/07/18 08:33:45;;;;;;;4.35;2.08;;;30.00;69.70;;;;;;7390569;19;20242;-76
2022/07/18 08:36:11;;;;;;;6.00;2.03;;;30.20;68.30;;;;;;7387605;19;20151;-75
2022/07/18 08:38:37;;;;;;;1.77;1.48;;;30.50;68.00;;;;;;7387764;19;20142;-76
2022/07/18 08:41:04;;;;;;;4.50;2.08;;;30.40;67.60;;;;;;7389116;19;20623;-76
2022/07/18 08:43:29;;;;;;;2.42;1.52;;;30.10;67.60;;;;;;7388196;19;20159;-76
2022/07/18 08:46:01;;;;;;;4.00;1.70;;;30.00;67.60;;;;;;7389876;19;20226;-76
2022/07/18 08:48:27;;;;;;;2.50;1.50;;;29.90;67.50;;;;;;7391358;19;20671;-77
2022/07/18 08:50:53;;;;;;;4.63;1.65;;;29.60;67.30;;;;;;7390386;19;20161;-77
2022/07/18 08:53:19;;;;;;;3.05;2.03;;;29.60;67.40;;;;;;7394315;19;20143;-76
2022/07/18 08:55:46;;;;;;;1.90;1.52;;;29.40;67.20;;;;;;7390811;19;20251;-76
2022/07/18 08:58:14;;;;;;;3.90;1.77;;;29.20;67.30;;;;;;7392001;19;20146;-76
2022/07/18 09:00:40;;;;;;;3.97;1.58;;;29.20;67.30;;;;;;7389347;19;20965;-75
2022/07/18 09:03:07;;;;;;;2.38;1.70;;;29.00;67.50;;;;;;7392312;19;20130;-77
2022/07/18 09:05:33;;;;;;;3.40;1.60;;;28.80;67.50;;;;;;7394638;19;20162;-74
2022/07/18 09:08:19;;;;;;;5.90;1.75;;;28.80;68.30;;;;;;7389422;19;20146;-76
2022/07/18 09:10:51;;;;;;;2.85;1.60;;;28.90;67.10;;;;;;7391860;19;20147;-76
2022/07/18 09:13:29;;;;;;;2.15;1.35;;;28.70;66.00;;;;;;7389790;19;20146;-76
2022/07/18 09:16:04;;;;;;;2.25;1.27;;;28.50;65.70;;;;;;7391716;19;20163;-77
2022/07/18 09:18:36;;;;;;;1.77;1.15;;;28.50;65.30;;;;;;7390452;19;20167;-76
2022/07/18 09:21:06;;;;;;;1.70;1.35;;;28.60;65.10;;;;;;7388068;19;20490;-77
2022/07/18 09:23:34;;;;;;;2.95;1.48;;;28.70;65.00;;;;;;7391307;19;20158;-77
2022/07/18 09:26:02;;;;;;;3.13;1.40;;;28.90;64.30;;;;;;7385266;19;20164;-76
2022/07/18 09:28:29;;;;;;;1.35;1.25;;;28.80;62.70;;;;;;7392666;19;20227;-76
2022/07/18 09:30:56;;;;;;;1.80;1.40;;;28.80;62.90;;;;;;7389271;19;20616;-76
2022/07/18 09:33:22;;;;;;;1.40;1.20;;;28.90;62.70;;;;;;7390821;19;20502;-76
2022/07/18 09:35:52;;;;;;;1.73;1.20;;;28.90;62.40;;;;;;7387735;19;20138;-75
2022/07/18 09:38:20;;;;;;;2.65;1.45;;;28.80;62.10;;;;;;7391463;19;20138;-77
2022/07/18 09:40:51;;;;;;;2.10;1.75;;;28.90;61.90;;;;;;7392258;19;20134;-77
2022/07/18 09:43:23;;;;;;;2.67;1.27;;;28.90;61.80;;;;;;7386951;19;20494;-77
2022/07/18 09:45:51;;;;;;;3.00;1.52;;;29.00;61.60;;;;;;7389265;19;20153;-75
2022/07/18 09:48:19;;;;;;;2.38;1.60;;;29.10;60.20;;;;;;7388528;19;20450;-78
2022/07/18 09:50:51;;;;;;;1.45;1.30;;;29.20;60.20;;;;;;7390586;19;20138;-77
2022/07/18 09:53:20;;;;;;;1.52;1.10;;;29.20;60.00;;;;;;7389379;19;20134;-76
2022/07/18 09:55:51;;;;;;;2.97;1.38;;;29.20;59.70;;;;;;7397409;19;20518;-78
2022/07/18 09:58:24;;;;;;;1.27;1.17;;;29.20;59.50;;;;;;7392735;19;20134;-77
2022/07/18 10:00:51;;;;;;;4.18;1.35;;;29.20;59.30;;;;;;7389892;19;20613;-78
2022/07/18 10:03:18;;;;;;;1.85;1.20;;;29.10;59.50;;;;;;7389049;19;20138;-78
2022/07/18 10:05:46;;;;;;;2.45;1.30;;;29.10;59.30;;;;;;7388023;19;20139;-78
2022/07/18 10:08:14;;;;;;;2.22;1.30;;;29.10;59.20;;;;;;7392242;19;20131;-78
2022/07/18 10:10:42;;;;;;;1.35;1.20;;;29.20;59.80;;;;;;7385593;19;20143;-78
2022/07/18 10:13:09;;;;;;;2.20;1.40;;;29.30;59.30;;;;;;7388925;19;20154;-77
2022/07/18 10:15:38;;;;;;;2.30;1.48;;;29.40;58.50;;;;;;7390586;19;20138;-78
2022/07/18 10:18:07;;;;;;;1.83;1.30;;;29.40;59.00;;;;;;7385614;19;20134;-80
2022/07/18 10:20:46;;;;;;;2.20;1.40;;;29.60;58.30;;;;;;7382938;19;20170;-78
2022/07/18 10:23:31;;;;;;;1.13;0.90;;;29.60;57.90;;;;;;7378036;19;20242;-76
2022/07/18 10:26:17;;;;;;;1.90;1.33;;;29.60;57.60;;;;;;7388509;19;20135;-76
2022/07/18 10:28:55;;;;;;;1.45;1.20;;;29.60;57.10;;;;;;7387345;19;20142;-77
2022/07/18 10:31:29;;;;;;;1.60;1.17;;;29.60;57.10;;;;;;7388556;19;20169;-78
2022/07/18 10:34:13;;;;;;;2.20;1.10;;;29.70;55.80;;;;;;7385071;19;20238;-78
2022/07/18 10:36:54;;;;;;;1.48;1.30;;;29.70;55.30;;;;;;7385837;19;20294;-78
2022/07/18 10:39:31;;;;;;;1.30;1.08;;;29.60;54.90;;;;;;7388531;19;20459;-80
2022/07/18 10:42:03;;;;;;;1.80;1.00;;;29.60;55.90;;;;;;7394850;19;20137;-77
2022/07/18 10:44:29;;;;;;;1.10;1.00;;;29.70;54.60;;;;;;7395342;19;20153;-77
2022/07/18 10:47:11;;;;;;;1.80;1.15;;;29.70;55.80;;;;;;7397110;19;20135;-78
2022/07/18 10:49:49;;;;;;;1.40;1.10;;;29.70;54.50;;;;;;7404848;19;20467;-77
2022/07/18 10:52:30;;;;;;;1.00;0.90;;;29.70;54.50;;;;;;7393847;19;20142;-79
2022/07/18 10:55:18;;;;;;;1.73;1.30;;;29.80;56.50;;;;;;7400236;19;20141;-78
2022/07/18 10:57:50;;;;;;;1.08;0.98;;;30.00;55.30;;;;;;7395255;19;20616;-77
2022/07/18 11:00:23;;;;;;;2.13;1.40;;;30.20;55.40;;;;;;7397168;19;20212;-77
2022/07/18 11:03:05;;;;;;;1.85;1.20;;;30.20;56.20;;;;;;7394441;19;20142;-78
2022/07/18 11:05:39;;;;;;;1.42;1.10;;;30.50;55.10;;;;;;7391403;19;20127;-79
2022/07/18 11:08:14;;;;;;;1.10;1.00;;;30.40;54.80;;;;;;7394714;19;20588;-78
2022/07/18 11:10:54;;;;;;;3.25;1.20;;;30.40;55.10;;;;;;7395472;19;20599;-77
2022/07/18 11:13:29;;;;;;;1.67;1.33;;;30.30;54.60;;;;;;7393787;19;20170;-77
2022/07/18 11:16:24;;;;;;;2.05;1.30;;;30.10;55.10;;;;;;7396244;19;20137;-75
2022/07/18 11:18:50;;;;;;;2.20;1.05;;;30.20;55.90;;;;;;7388426;19;20158;-77
2022/07/18 11:21:17;;;;;;;3.03;0.90;;;30.20;54.60;;;;;;7390028;19;20157;-77
2022/07/18 11:23:46;;;;;;;1.13;0.80;;;30.40;53.30;;;;;;7395161;19;20143;-75
2022/07/18 11:26:18;;;;;;;1.90;1.15;;;30.50;54.40;;;;;;7388719;19;20178;-76
2022/07/18 11:28:45;;;;;;;7.18;1.20;;;30.50;52.90;;;;;;7395107;19;20170;-76
2022/07/18 11:31:12;;;;;;;8.93;1.75;;;30.50;53.60;;;;;;7389584;19;20150;-76
2022/07/18 11:33:45;;;;;;;13.45;2.03;;;30.40;52.90;;;;;;7393620;19;20170;-75
2022/07/18 11:36:16;;;;;;;11.52;2.30;;;30.40;53.20;;;;;;7393123;19;20159;-77
2022/07/18 11:38:48;;;;;;;1.27;1.00;;;30.40;52.70;;;;;;7393947;19;20145;-75
2022/07/18 11:41:15;;;;;;;2.05;0.90;;;30.40;53.10;;;;;;7394820;19;20159;-76
2022/07/18 11:43:44;;;;;;;1.58;0.90;;;30.70;52.40;;;;;;7390770;19;20159;-76
2022/07/18 11:46:12;;;;;;;1.35;0.80;;;30.70;52.80;;;;;;7393472;19;20150;-75
2022/07/18 11:48:40;;;;;;;2.92;1.15;;;30.80;52.90;;;;;;7393066;19;20146;-76
2022/07/18 11:51:09;;;;;;;2.13;1.02;;;30.90;53.60;;;;;;7388587;19;20158;-76
2022/07/18 11:53:35;;;;;;;1.60;1.35;;;30.90;52.40;;;;;;7392352;19;20135;-76
2022/07/18 11:56:05;;;;;;;3.03;1.00;;;30.90;53.80;;;;;;7389277;19;20533;-76
2022/07/18 11:58:38;;;;;;;3.75;3.10;;;31.00;52.80;;;;;;7394109;19;20139;-75
2022/07/18 12:01:05;;;;;;;1.38;1.25;;;30.90;53.20;;;;;;7390109;19;20127;-77
2022/07/18 12:03:34;;;;;;;1.48;1.02;;;30.80;52.40;;;;;;7390494;19;20138;-77
2022/07/18 12:06:10;;;;;;;0.68;0.68;;;30.90;51.50;;;;;;7391076;19;20146;-77
2022/07/18 12:08:41;;;;;;;1.10;0.70;;;31.10;50.60;;;;;;7392263;19;20499;-77
2022/07/18 12:11:27;;;;;;;1.00;0.90;;;31.20;50.80;;;;;;7393690;19;20154;-77
2022/07/18 12:13:59;;;;;;;1.05;0.95;;;31.10;51.20;;;;;;7394132;19;20142;-80
2022/07/18 12:16:26;;;;;;;1.17;0.90;;;31.20;51.20;;;;;;7387966;19;20170;-78
2022/07/18 12:19:10;;;;;;;0.80;0.80;;;31.10;50.90;;;;;;7394278;19;20150;-77
2022/07/18 12:21:43;;;;;;;1.15;1.05;;;31.10;52.30;;;;;;7392360;19;20590;-77
2022/07/18 12:24:27;;;;;;;2.55;1.20;;;31.20;52.50;;;;;;7393696;19;20218;-76
2022/07/18 12:27:22;;;;;;;1.67;1.23;;;31.20;54.00;;;;;;7392434;19;20544;-76
2022/07/18 12:30:04;;;;;;;1.20;0.90;;;31.10;52.60;;;;;;7393600;19;20144;-76
2022/07/18 12:32:54;;;;;;;1.33;1.20;;;30.90;52.80;;;;;;7393335;19;20151;-77
2022/07/18 12:35:35;;;;;;;1.25;1.00;;;31.00;53.60;;;;;;7394971;19;20127;-77
2022/07/18 12:38:01;;;;;;;1.20;1.10;;;31.00;54.30;;;;;;7392814;19;20138;-75
2022/07/18 12:40:44;;;;;;;2.25;1.60;;;31.10;52.50;;;;;;7393265;19;20585;-77
2022/07/18 12:43:12;;;;;;;2.20;1.10;;;31.20;52.10;;;;;;7393754;19;20404;-77
2022/07/18 12:45:39;;;;;;;1.50;1.40;;;31.00;53.40;;;;;;7392162;19;20148;-79
2022/07/18 12:48:07;;;;;;;2.33;1.20;;;30.90;54.00;;;;;;7392080;19;20155;-77
2022/07/18 12:50:34;;;;;;;1.30;1.20;;;30.90;52.80;;;;;;7390254;19;20414;-77